sensor_id;sensor_type;location;lat;lon;timestamp;pressure;altitude;pressure_sealevel;temperature;humidity
51123;BME280;37162;41.724;13.346;2023-03-16T00:01:14;96368.16;;;17.11;62.16
51123;BME280;37162;41.724;13.346;2023-03-16T00:03:40;96381.56;;;17.11;62.18
51123;BME280;37162;41.724;13.346;2023-03-16T00:06:05;96361.56;;;17.02;61.92
51123;BME280;37162;41.724;13.346;2023-03-16T00:08:31;96372.16;;;17.09;61.78
51123;BME280;37162;41.724;13.346;2023-03-16T00:10:56;96360.81;;;17.07;62.01
51123;BME280;37162;41.724;13.346;2023-03-16T00:13:23;96363.03;;;17.10;61.55
51123;BME280;37162;41.724;13.346;2023-03-16T00:15:50;96372.72;;;17.11;61.66
51123;BME280;37162;41.724;13.346;2023-03-16T00:18:16;96366.53;;;17.10;61.77
51123;BME280;37162;41.724;13.346;2023-03-16T00:20:42;96373.78;;;17.10;61.71
51123;BME280;37162;41.724;13.346;2023-03-16T00:23:07;96364.91;;;17.09;61.52
51123;BME280;37162;41.724;13.346;2023-03-16T00:25:32;96364.09;;;17.09;61.88
51123;BME280;37162;41.724;13.346;2023-03-16T00:27:58;96354.19;;;17.09;61.70
51123;BME280;37162;41.724;13.346;2023-03-16T00:30:30;96353.38;;;17.09;61.62
51123;BME280;37162;41.724;13.346;2023-03-16T00:32:57;96349.88;;;17.08;61.75
51123;BME280;37162;41.724;13.346;2023-03-16T00:35:22;96348.00;;;17.09;61.55
51123;BME280;37162;41.724;13.346;2023-03-16T00:37:48;96355.78;;;17.10;61.80
51123;BME280;37162;41.724;13.346;2023-03-16T00:40:14;96344.66;;;17.02;62.23
51123;BME280;37162;41.724;13.346;2023-03-16T00:42:39;96351.50;;;17.09;62.32
51123;BME280;37162;41.724;13.346;2023-03-16T00:45:06;96354.97;;;17.10;62.45
51123;BME280;37162;41.724;13.346;2023-03-16T00:47:33;96356.03;;;17.09;62.52
51123;BME280;37162;41.724;13.346;2023-03-16T00:49:59;96364.91;;;17.09;62.68
51123;BME280;37162;41.724;13.346;2023-03-16T00:52:26;96353.38;;;17.09;62.68
51123;BME280;37162;41.724;13.346;2023-03-16T00:54:53;96358.72;;;17.09;62.31
51123;BME280;37162;41.724;13.346;2023-03-16T00:57:20;96358.72;;;17.09;62.04
51123;BME280;37162;41.724;13.346;2023-03-16T00:59:47;96349.53;;;17.05;61.82
51123;BME280;37162;41.724;13.346;2023-03-16T01:02:13;96365.97;;;17.08;61.88
51123;BME280;37162;41.724;13.346;2023-03-16T01:04:39;96366.78;;;17.09;61.65
51123;BME280;37162;41.724;13.346;2023-03-16T01:07:11;96355.47;;;17.07;61.77
51123;BME280;37162;41.724;13.346;2023-03-16T01:09:41;96345.53;;;17.07;61.53
51123;BME280;37162;41.724;13.346;2023-03-16T01:12:18;96341.22;;;17.06;61.27
51123;BME280;37162;41.724;13.346;2023-03-16T01:14:44;96360.81;;;17.07;61.33
51123;BME280;37162;41.724;13.346;2023-03-16T01:17:10;96353.03;;;17.05;61.36
51123;BME280;37162;41.724;13.346;2023-03-16T01:19:38;96344.97;;;17.05;61.47
51123;BME280;37162;41.724;13.346;2023-03-16T01:22:07;96350.34;;;17.05;61.62
51123;BME280;37162;41.724;13.346;2023-03-16T01:24:34;96355.16;;;17.03;61.46
51123;BME280;37162;41.724;13.346;2023-03-16T01:27:01;96357.84;;;17.03;61.46
51123;BME280;37162;41.724;13.346;2023-03-16T01:29:27;96350.81;;;17.02;61.25
51123;BME280;37162;41.724;13.346;2023-03-16T01:31:53;96338.63;;;16.95;61.43
51123;BME280;37162;41.724;13.346;2023-03-16T01:34:20;96340.59;;;16.99;61.59
51123;BME280;37162;41.724;13.346;2023-03-16T01:36:47;96337.66;;;17.01;61.62
51123;BME280;37162;41.724;13.346;2023-03-16T01:39:13;96336.03;;;17.00;61.86
51123;BME280;37162;41.724;13.346;2023-03-16T01:41:40;96348.38;;;17.01;62.09
51123;BME280;37162;41.724;13.346;2023-03-16T01:44:11;96343.03;;;17.01;61.82
51123;BME280;37162;41.724;13.346;2023-03-16T01:46:37;96315.69;;;16.87;62.19
51123;BME280;37162;41.724;13.346;2023-03-16T01:51:42;96337.66;;;17.01;61.79
51123;BME280;37162;41.724;13.346;2023-03-16T01:57:05;96325.31;;;17.00;61.37
51123;BME280;37162;41.724;13.346;2023-03-16T01:59:51;96317.41;;;16.93;61.41
51123;BME280;37162;41.724;13.346;2023-03-16T02:02:22;96314.56;;;17.00;61.17
51123;BME280;37162;41.724;13.346;2023-03-16T02:05:00;96319.94;;;17.00;61.22
51123;BME280;37162;41.724;13.346;2023-03-16T02:07:28;96318.31;;;16.99;60.90
51123;BME280;37162;41.724;13.346;2023-03-16T02:09:57;96327.19;;;16.99;61.17
51123;BME280;37162;41.724;13.346;2023-03-16T02:12:25;96322.84;;;16.98;61.13
51123;BME280;37162;41.724;13.346;2023-03-16T02:14:51;96330.91;;;16.98;61.15
51123;BME280;37162;41.724;13.346;2023-03-16T02:17:21;96323.69;;;16.99;61.04
51123;BME280;37162;41.724;13.346;2023-03-16T02:22:25;96329.06;;;16.99;61.03
51123;BME280;37162;41.724;13.346;2023-03-16T02:24:52;96325.44;;;16.93;61.12
51123;BME280;37162;41.724;13.346;2023-03-16T02:27:41;96338.94;;;16.98;61.14
51123;BME280;37162;41.724;13.346;2023-03-16T02:32:33;96341.88;;;16.97;60.88
51123;BME280;37162;41.724;13.346;2023-03-16T02:35:01;96351.56;;;16.98;61.25
51123;BME280;37162;41.724;13.346;2023-03-16T02:37:27;96356.09;;;16.97;61.16
51123;BME280;37162;41.724;13.346;2023-03-16T02:39:52;96343.19;;;16.94;61.63
51123;BME280;37162;41.724;13.346;2023-03-16T02:42:20;96355.03;;;16.98;61.92
51123;BME280;37162;41.724;13.346;2023-03-16T02:44:50;96334.31;;;16.94;61.97
51123;BME280;37162;41.724;13.346;2023-03-16T02:47:31;96352.63;;;16.97;61.87
51123;BME280;37162;41.724;13.346;2023-03-16T02:49:58;96348.31;;;16.96;61.29
51123;BME280;37162;41.724;13.346;2023-03-16T02:52:25;96347.50;;;16.95;61.17
51123;BME280;37162;41.724;13.346;2023-03-16T02:54:50;96355.53;;;16.95;61.12
51123;BME280;37162;41.724;13.346;2023-03-16T02:57:16;96353.94;;;16.94;61.00
51123;BME280;37162;41.724;13.346;2023-03-16T02:59:41;96341.47;;;16.88;61.06
51123;BME280;37162;41.724;13.346;2023-03-16T03:02:07;96361.72;;;16.96;60.93
51123;BME280;37162;41.724;13.346;2023-03-16T03:04:32;96361.72;;;16.96;60.86
51123;BME280;37162;41.724;13.346;2023-03-16T03:06:58;96360.91;;;16.95;61.03
51123;BME280;37162;41.724;13.346;2023-03-16T03:09:29;96370.03;;;16.94;60.70
51123;BME280;37162;41.724;13.346;2023-03-16T03:11:56;96370.03;;;16.94;60.86
51123;BME280;37162;41.724;13.346;2023-03-16T03:14:22;96381.56;;;16.95;60.98
51123;BME280;37162;41.724;13.346;2023-03-16T03:16:47;96373.53;;;16.95;60.78
51123;BME280;37162;41.724;13.346;2023-03-16T03:19:13;96368.38;;;16.93;60.51
51123;BME280;37162;41.724;13.346;2023-03-16T03:21:39;96365.69;;;16.93;60.86
51123;BME280;37162;41.724;13.346;2023-03-16T03:24:05;96375.63;;;16.93;60.73
51123;BME280;37162;41.724;13.346;2023-03-16T03:26:30;96378.31;;;16.93;60.89
51123;BME280;37162;41.724;13.346;2023-03-16T03:28:55;96368.38;;;16.93;60.85
51123;BME280;37162;41.724;13.346;2023-03-16T03:31:21;96372.94;;;16.93;61.34
51123;BME280;37162;41.724;13.346;2023-03-16T03:33:47;96380.75;;;16.94;61.33
51123;BME280;37162;41.724;13.346;2023-03-16T03:36:13;96379.09;;;16.93;61.65
51123;BME280;37162;41.724;13.346;2023-03-16T03:38:39;96370.41;;;16.86;61.67
51123;BME280;37162;41.724;13.346;2023-03-16T03:41:05;96379.63;;;16.90;61.88
51123;BME280;37162;41.724;13.346;2023-03-16T03:43:34;96389.03;;;16.93;61.64
51123;BME280;37162;41.724;13.346;2023-03-16T03:46:01;96393.84;;;16.91;61.52
51123;BME280;37162;41.724;13.346;2023-03-16T03:48:27;96400.81;;;16.92;61.08
51123;BME280;37162;41.724;13.346;2023-03-16T03:50:53;96400.81;;;16.92;60.74
51123;BME280;37162;41.724;13.346;2023-03-16T03:53:19;96401.09;;;16.90;60.94
51123;BME280;37162;41.724;13.346;2023-03-16T03:55:44;96392.34;;;16.83;60.63
51123;BME280;37162;41.724;13.346;2023-03-16T03:58:10;96402.94;;;16.90;60.76
51123;BME280;37162;41.724;13.346;2023-03-16T04:00:36;96394.22;;;16.82;61.00
51123;BME280;37162;41.724;13.346;2023-03-16T04:03:02;96409.34;;;16.89;61.09
51123;BME280;37162;41.724;13.346;2023-03-16T04:05:28;96399.69;;;16.88;61.08
51123;BME280;37162;41.724;13.346;2023-03-16T04:07:54;96403.44;;;16.86;61.24
51123;BME280;37162;41.724;13.346;2023-03-16T04:10:23;96398.06;;;16.86;61.00
51123;BME280;37162;41.724;13.346;2023-03-16T04:12:49;96399.13;;;16.85;61.18
51123;BME280;37162;41.724;13.346;2023-03-16T04:15:14;96411.47;;;16.86;60.90
51123;BME280;37162;41.724;13.346;2023-03-16T04:17:40;96412.75;;;16.84;60.95
51123;BME280;37162;41.724;13.346;2023-03-16T04:20:06;96398.44;;;16.78;61.16
51123;BME280;37162;41.724;13.346;2023-03-16T04:22:38;96399.59;;;16.82;60.88
51123;BME280;37162;41.724;13.346;2023-03-16T04:25:03;96399.50;;;16.77;61.07
51123;BME280;37162;41.724;13.346;2023-03-16T04:27:29;96413.00;;;16.82;60.97
51123;BME280;37162;41.724;13.346;2023-03-16T04:30:10;96405.75;;;16.83;60.75
51123;BME280;37162;41.724;13.346;2023-03-16T04:32:37;96411.13;;;16.83;60.94
51123;BME280;37162;41.724;13.346;2023-03-16T04:35:03;96413.59;;;16.84;61.27
51123;BME280;37162;41.724;13.346;2023-03-16T04:37:29;96413.97;;;16.76;61.45
51123;BME280;37162;41.724;13.346;2023-03-16T04:39:54;96417.91;;;16.85;61.59
51123;BME280;37162;41.724;13.346;2023-03-16T04:42:19;96410.06;;;16.84;61.73
51123;BME280;37162;41.724;13.346;2023-03-16T04:44:46;96413.81;;;16.83;61.26
51123;BME280;37162;41.724;13.346;2023-03-16T04:47:13;96427.81;;;16.85;60.97
51123;BME280;37162;41.724;13.346;2023-03-16T04:49:39;96429.69;;;16.84;60.91
51123;BME280;37162;41.724;13.346;2023-03-16T04:52:05;96423.47;;;16.84;60.69
51123;BME280;37162;41.724;13.346;2023-03-16T04:54:31;96436.91;;;16.84;60.82
51123;BME280;37162;41.724;13.346;2023-03-16T04:56:57;96435.06;;;16.84;60.73
51123;BME280;37162;41.724;13.346;2023-03-16T04:59:24;96436.00;;;16.78;60.71
51123;BME280;37162;41.724;13.346;2023-03-16T05:01:50;96452.78;;;16.85;60.59
51123;BME280;37162;41.724;13.346;2023-03-16T05:04:15;96458.38;;;16.84;60.75
51123;BME280;37162;41.724;13.346;2023-03-16T05:06:41;96451.63;;;16.81;60.53
51123;BME280;37162;41.724;13.346;2023-03-16T05:09:06;96454.06;;;16.83;60.60
51123;BME280;37162;41.724;13.346;2023-03-16T05:11:34;96456.75;;;16.83;60.53
51123;BME280;37162;41.724;13.346;2023-03-16T05:13:59;96471.78;;;16.84;60.36
51123;BME280;37162;41.724;13.346;2023-03-16T05:16:27;96471.78;;;16.84;60.42
51123;BME280;37162;41.724;13.346;2023-03-16T05:18:52;96475.53;;;16.83;60.29
51123;BME280;37162;41.724;13.346;2023-03-16T05:21:18;96478.22;;;16.83;60.26
51123;BME280;37162;41.724;13.346;2023-03-16T05:23:44;96480.06;;;16.82;60.51
51123;BME280;37162;41.724;13.346;2023-03-16T05:26:10;96497.22;;;16.81;60.41
51123;BME280;37162;41.724;13.346;2023-03-16T05:28:37;96509.59;;;16.82;60.82
51123;BME280;37162;41.724;13.346;2023-03-16T05:31:03;96498.59;;;16.84;60.96
51123;BME280;37162;41.724;13.346;2023-03-16T05:33:28;96503.41;;;16.82;61.02
51123;BME280;37162;41.724;13.346;2023-03-16T05:35:54;96506.91;;;16.82;61.26
51123;BME280;37162;41.724;13.346;2023-03-16T05:38:22;96513.34;;;16.81;61.10
51123;BME280;37162;41.724;13.346;2023-03-16T05:40:48;96513.34;;;16.81;60.83
51123;BME280;37162;41.724;13.346;2023-03-16T05:43:18;96511.13;;;16.78;60.53
51123;BME280;37162;41.724;13.346;2023-03-16T05:45:43;96508.69;;;16.77;60.63
51123;BME280;37162;41.724;13.346;2023-03-16T05:48:09;96511.47;;;16.82;60.61
51123;BME280;37162;41.724;13.346;2023-03-16T05:50:34;96503.66;;;16.80;60.56
51123;BME280;37162;41.724;13.346;2023-03-16T05:52:59;96511.72;;;16.80;60.35
51123;BME280;37162;41.724;13.346;2023-03-16T05:55:25;96533.16;;;16.80;60.25
51123;BME280;37162;41.724;13.346;2023-03-16T05:57:50;96541.44;;;16.79;60.22
51123;BME280;37162;41.724;13.346;2023-03-16T06:00:16;96546.81;;;16.79;60.09
51123;BME280;37162;41.724;13.346;2023-03-16T06:02:44;96544.94;;;16.79;60.05
51123;BME280;37162;41.724;13.346;2023-03-16T06:05:11;96539.56;;;16.79;60.31
51123;BME280;37162;41.724;13.346;2023-03-16T06:07:37;96545.78;;;16.80;60.36
51123;BME280;37162;41.724;13.346;2023-03-16T06:10:03;96536.31;;;16.77;60.52
51123;BME280;37162;41.724;13.346;2023-03-16T06:12:29;96543.31;;;16.78;60.62
51123;BME280;37162;41.724;13.346;2023-03-16T06:14:55;96560.47;;;16.77;60.53
51123;BME280;37162;41.724;13.346;2023-03-16T06:17:20;96571.19;;;16.77;60.72
51123;BME280;37162;41.724;13.346;2023-03-16T06:19:46;96578.44;;;16.77;60.45
51123;BME280;37162;41.724;13.346;2023-03-16T06:22:11;96547.03;;;16.77;60.21
51123;BME280;37162;41.724;13.346;2023-03-16T06:24:36;96568.50;;;16.77;60.50
51123;BME280;37162;41.724;13.346;2023-03-16T06:27:02;96572.00;;;16.78;60.52
51123;BME280;37162;41.724;13.346;2023-03-16T06:29:28;96576.31;;;16.79;60.22
51123;BME280;37162;41.724;13.346;2023-03-16T06:31:54;96563.72;;;16.79;60.30
51123;BME280;37162;41.724;13.346;2023-03-16T06:34:20;96566.41;;;16.79;59.86
51123;BME280;37162;41.724;13.346;2023-03-16T06:36:45;96564.56;;;16.80;60.23
51123;BME280;37162;41.724;13.346;2023-03-16T06:39:11;96574.13;;;16.76;59.79
51123;BME280;37162;41.724;13.346;2023-03-16T06:41:36;96585.78;;;16.81;59.55
51123;BME280;37162;41.724;13.346;2023-03-16T06:44:02;96571.28;;;16.82;59.46
51123;BME280;37162;41.724;13.346;2023-03-16T06:46:27;96572.09;;;16.83;59.67
51123;BME280;37162;41.724;13.346;2023-03-16T06:48:53;96572.72;;;16.85;59.47
51123;BME280;37162;41.724;13.346;2023-03-16T06:51:18;96580.75;;;16.85;59.37
51123;BME280;37162;41.724;13.346;2023-03-16T06:53:44;96586.94;;;16.85;59.64
51123;BME280;37162;41.724;13.346;2023-03-16T06:56:09;96591.25;;;16.86;59.79
51123;BME280;37162;41.724;13.346;2023-03-16T06:58:35;96588.56;;;16.86;59.96
51123;BME280;37162;41.724;13.346;2023-03-16T07:01:03;96584.81;;;16.88;59.57
51123;BME280;37162;41.724;13.346;2023-03-16T07:03:29;96586.44;;;16.89;59.60
51123;BME280;37162;41.724;13.346;2023-03-16T07:05:55;96595.09;;;16.91;59.70
51123;BME280;37162;41.724;13.346;2023-03-16T07:08:21;96596.72;;;16.92;59.61
51123;BME280;37162;41.724;13.346;2023-03-16T07:10:46;96599.16;;;16.93;59.34
51123;BME280;37162;41.724;13.346;2023-03-16T07:13:12;96611.53;;;16.94;59.62
51123;BME280;37162;41.724;13.346;2023-03-16T07:15:38;96611.28;;;16.96;59.49
51123;BME280;37162;41.724;13.346;2023-03-16T07:18:03;96622.59;;;16.98;59.29
51123;BME280;37162;41.724;13.346;2023-03-16T07:20:28;96615.94;;;17.00;59.54
51123;BME280;37162;41.724;13.346;2023-03-16T07:22:56;96618.38;;;17.02;59.41
51123;BME280;37162;41.724;13.346;2023-03-16T07:25:21;96616.75;;;17.01;59.53
51123;BME280;37162;41.724;13.346;2023-03-16T07:27:47;96634.59;;;17.07;59.75
51123;BME280;37162;41.724;13.346;2023-03-16T07:30:12;96635.19;;;17.09;60.32
51123;BME280;37162;41.724;13.346;2023-03-16T07:32:39;96636.81;;;17.10;60.03
51123;BME280;37162;41.724;13.346;2023-03-16T07:35:07;96639.25;;;17.11;59.73
51123;BME280;37162;41.724;13.346;2023-03-16T07:37:32;96643.81;;;17.11;58.77
51123;BME280;37162;41.724;13.346;2023-03-16T07:39:59;96654.09;;;17.14;58.52
51123;BME280;37162;41.724;13.346;2023-03-16T07:42:25;96655.47;;;17.17;57.61
51123;BME280;37162;41.724;13.346;2023-03-16T07:44:50;96647.56;;;17.10;57.49
51123;BME280;37162;41.724;13.346;2023-03-16T07:47:16;96669.25;;;17.20;57.16
51123;BME280;37162;41.724;13.346;2023-03-16T07:49:42;96667.16;;;17.22;56.88
51123;BME280;37162;41.724;13.346;2023-03-16T07:52:09;96667.72;;;17.24;56.65
51123;BME280;37162;41.724;13.346;2023-03-16T07:54:40;96675.31;;;17.27;55.99
51123;BME280;37162;41.724;13.346;2023-03-16T07:57:06;96673.19;;;17.29;55.79
51123;BME280;37162;41.724;13.346;2023-03-16T07:59:32;96671.09;;;17.31;55.82
51123;BME280;37162;41.724;13.346;2023-03-16T08:01:57;96674.34;;;17.33;55.91
51123;BME280;37162;41.724;13.346;2023-03-16T08:04:23;96674.91;;;17.35;56.18
51123;BME280;37162;41.724;13.346;2023-03-16T08:06:49;96673.88;;;17.36;56.28
51123;BME280;37162;41.724;13.346;2023-03-16T08:09:17;96686.25;;;17.37;56.46
51123;BME280;37162;41.724;13.346;2023-03-16T08:11:42;96684.50;;;17.43;56.76
51123;BME280;37162;41.724;13.346;2023-03-16T08:14:08;96684.25;;;17.45;56.85
51123;BME280;37162;41.724;13.346;2023-03-16T08:16:34;96690.22;;;17.47;57.18
51123;BME280;37162;41.724;13.346;2023-03-16T08:18:59;96686.47;;;17.48;56.97
51123;BME280;37162;41.724;13.346;2023-03-16T08:21:25;96686.81;;;17.51;56.73
51123;BME280;37162;41.724;13.346;2023-03-16T08:23:52;96691.69;;;17.54;56.77
51123;BME280;37162;41.724;13.346;2023-03-16T08:26:19;96696.59;;;17.57;56.52
51123;BME280;37162;41.724;13.346;2023-03-16T08:28:46;96691.22;;;17.57;56.77
51123;BME280;37162;41.724;13.346;2023-03-16T08:31:13;96696.94;;;17.61;56.86
51123;BME280;37162;41.724;13.346;2023-03-16T08:33:44;96692.72;;;17.65;57.04
51123;BME280;37162;41.724;13.346;2023-03-16T08:36:12;96695.97;;;17.67;57.08
51123;BME280;37162;41.724;13.346;2023-03-16T08:38:39;96695.50;;;17.70;57.42
51123;BME280;37162;41.724;13.346;2023-03-16T08:41:05;96693.38;;;17.72;57.41
51123;BME280;37162;41.724;13.346;2023-03-16T08:43:31;96700.19;;;17.75;57.54
51123;BME280;37162;41.724;13.346;2023-03-16T08:45:57;96700.75;;;17.77;57.60
51123;BME280;37162;41.724;13.346;2023-03-16T08:48:23;96699.94;;;17.76;57.49
51123;BME280;37162;41.724;13.346;2023-03-16T08:50:49;96694.66;;;17.81;57.69
51123;BME280;37162;41.724;13.346;2023-03-16T08:53:16;96706.00;;;17.83;57.67
51123;BME280;37162;41.724;13.346;2023-03-16T08:55:41;96696.28;;;17.82;57.70
51123;BME280;37162;41.724;13.346;2023-03-16T08:58:08;96710.66;;;17.88;57.60
51123;BME280;37162;41.724;13.346;2023-03-16T09:00:34;96706.09;;;17.88;57.42
51123;BME280;37162;41.724;13.346;2023-03-16T09:03:01;96705.84;;;17.90;57.47
51123;BME280;37162;41.724;13.346;2023-03-16T09:05:27;96697.53;;;17.92;57.05
51123;BME280;37162;41.724;13.346;2023-03-16T09:07:53;96691.13;;;17.93;57.16
51123;BME280;37162;41.724;13.346;2023-03-16T09:10:19;96705.94;;;17.95;56.91
51123;BME280;37162;41.724;13.346;2023-03-16T09:12:48;96704.06;;;17.96;56.47
51123;BME280;37162;41.724;13.346;2023-03-16T09:15:14;96707.09;;;17.99;56.68
51123;BME280;37162;41.724;13.346;2023-03-16T09:17:40;96705.22;;;18.00;56.53
51123;BME280;37162;41.724;13.346;2023-03-16T09:20:08;96712.22;;;18.01;56.13
51123;BME280;37162;41.724;13.346;2023-03-16T09:22:35;96700.19;;;18.03;55.72
51123;BME280;37162;41.724;13.346;2023-03-16T09:25:04;96701.81;;;18.04;55.55
51123;BME280;37162;41.724;13.346;2023-03-16T09:27:33;96708.81;;;18.05;55.26
51123;BME280;37162;41.724;13.346;2023-03-16T09:30:02;96705.91;;;18.07;55.01
51123;BME280;37162;41.724;13.346;2023-03-16T09:32:29;96703.22;;;18.07;55.29
51123;BME280;37162;41.724;13.346;2023-03-16T09:34:54;96694.56;;;18.05;55.43
51123;BME280;37162;41.724;13.346;2023-03-16T09:37:21;96698.66;;;18.07;55.64
51123;BME280;37162;41.724;13.346;2023-03-16T09:39:47;96715.78;;;18.18;55.76
51123;BME280;37162;41.724;13.346;2023-03-16T09:47:21;96731.19;;;18.23;55.39
51123;BME280;37162;41.724;13.346;2023-03-16T09:49:50;96723.03;;;18.18;55.56
51123;BME280;37162;41.724;13.346;2023-03-16T09:52:27;96730.72;;;18.26;55.34
51123;BME280;37162;41.724;13.346;2023-03-16T09:55:00;96740.41;;;18.27;55.25
51123;BME280;37162;41.724;13.346;2023-03-16T09:57:34;96743.66;;;18.29;55.18
51123;BME280;37162;41.724;13.346;2023-03-16T10:03:22;96744.00;;;18.32;55.51
51123;BME280;37162;41.724;13.346;2023-03-16T10:06:03;96744.72;;;18.28;55.67
51123;BME280;37162;41.724;13.346;2023-03-16T10:08:46;96757.78;;;18.36;55.36
51123;BME280;37162;41.724;13.346;2023-03-16T10:14:37;96751.91;;;18.39;55.65
51123;BME280;37162;41.724;13.346;2023-03-16T10:17:21;96752.50;;;18.41;55.45
51123;BME280;37162;41.724;13.346;2023-03-16T10:27:40;96748.34;;;18.50;55.60
51123;BME280;37162;41.724;13.346;2023-03-16T10:30:32;96749.72;;;18.53;55.83
51123;BME280;37162;41.724;13.346;2023-03-16T10:33:16;96754.06;;;18.54;56.05
51123;BME280;37162;41.724;13.346;2023-03-16T10:35:51;96750.31;;;18.55;55.93
51123;BME280;37162;41.724;13.346;2023-03-16T10:38:29;96749.72;;;18.53;56.24
51123;BME280;37162;41.724;13.346;2023-03-16T10:40:57;96754.06;;;18.54;56.43
51123;BME280;37162;41.724;13.346;2023-03-16T10:43:23;96747.84;;;18.53;56.15
51123;BME280;37162;41.724;13.346;2023-03-16T10:45:49;96754.06;;;18.54;56.41
51123;BME280;37162;41.724;13.346;2023-03-16T10:48:18;96759.44;;;18.54;56.49
51123;BME280;37162;41.724;13.346;2023-03-16T10:50:49;96758.31;;;18.50;56.47
51123;BME280;37162;41.724;13.346;2023-03-16T10:53:20;96761.56;;;18.52;56.35
51123;BME280;37162;41.724;13.346;2023-03-16T10:55:48;96760.75;;;18.51;56.51
51123;BME280;37162;41.724;13.346;2023-03-16T10:58:25;96752.91;;;18.50;56.39
51123;BME280;37162;41.724;13.346;2023-03-16T11:00:53;96758.84;;;18.52;56.43
51123;BME280;37162;41.724;13.346;2023-03-16T11:03:27;96765.06;;;18.52;56.47
51123;BME280;37162;41.724;13.346;2023-03-16T11:05:57;96764.00;;;18.53;56.28
51123;BME280;37162;41.724;13.346;2023-03-16T11:08:25;96757.78;;;18.53;56.44
51123;BME280;37162;41.724;13.346;2023-03-16T11:10:57;96761.06;;;18.55;56.62
51123;BME280;37162;41.724;13.346;2023-03-16T11:13:35;96760.81;;;18.56;56.65
51123;BME280;37162;41.724;13.346;2023-03-16T11:18:55;96756.84;;;18.59;56.70
51123;BME280;37162;41.724;13.346;2023-03-16T11:24:04;96749.34;;;18.61;56.57
51123;BME280;37162;41.724;13.346;2023-03-16T11:26:34;96757.97;;;18.63;56.42
51123;BME280;37162;41.724;13.346;2023-03-16T11:29:06;96750.97;;;18.62;56.38
51123;BME280;37162;41.724;13.346;2023-03-16T11:31:51;96744.50;;;18.63;56.25
51123;BME280;37162;41.724;13.346;2023-03-16T11:34:22;96752.59;;;18.63;56.30
51123;BME280;37162;41.724;13.346;2023-03-16T11:40:38;96748.84;;;18.64;56.43
51123;BME280;37162;41.724;13.346;2023-03-16T11:47:59;96743.47;;;18.64;56.37
51123;BME280;37162;41.724;13.346;2023-03-16T11:56:10;96736.53;;;18.68;52.88
51123;BME280;37162;41.724;13.346;2023-03-16T11:58:49;96728.47;;;18.68;53.99
51123;BME280;37162;41.724;13.346;2023-03-16T12:15:16;96718.19;;;18.65;55.88
51123;BME280;37162;41.724;13.346;2023-03-16T12:17:46;96719.00;;;18.65;55.99
51123;BME280;37162;41.724;13.346;2023-03-16T12:20:27;96715.50;;;18.65;56.07
51123;BME280;37162;41.724;13.346;2023-03-16T12:23:04;96714.44;;;18.66;56.16
51123;BME280;37162;41.724;13.346;2023-03-16T12:25:35;96711.75;;;18.66;56.14
51123;BME280;37162;41.724;13.346;2023-03-16T12:28:05;96716.31;;;18.65;56.03
51123;BME280;37162;41.724;13.346;2023-03-16T12:41:15;96712.47;;;18.61;56.44
51123;BME280;37162;41.724;13.346;2023-03-16T12:44:21;96708.41;;;18.59;56.45
51123;BME280;37162;41.724;13.346;2023-03-16T12:49:39;96708.81;;;18.51;56.62
51123;BME280;37162;41.724;13.346;2023-03-16T12:52:11;96709.63;;;18.51;56.62
51123;BME280;37162;41.724;13.346;2023-03-16T12:57:16;96705.22;;;18.45;56.73
51123;BME280;37162;41.724;13.346;2023-03-16T12:59:44;96700.56;;;18.41;56.66
51123;BME280;37162;41.724;13.346;2023-03-16T13:02:20;96699.97;;;18.38;56.61
51123;BME280;37162;41.724;13.346;2023-03-16T13:04:56;96691.28;;;18.31;56.55
51123;BME280;37162;41.724;13.346;2023-03-16T13:07:24;96692.56;;;18.29;56.82
51123;BME280;37162;41.724;13.346;2023-03-16T13:10:07;96697.38;;;18.27;56.59
51123;BME280;37162;41.724;13.346;2023-03-16T13:12:35;96687.34;;;18.22;56.64
51123;BME280;37162;41.724;13.346;2023-03-16T13:17:44;96685.03;;;18.14;56.64
51123;BME280;37162;41.724;13.346;2023-03-16T13:28:35;96685.84;;;17.98;52.58
51123;BME280;37162;41.724;13.346;2023-03-16T13:31:02;96680.69;;;17.96;53.11
51123;BME280;37162;41.724;13.346;2023-03-16T13:33:31;96681.75;;;17.95;53.39
51123;BME280;37162;41.724;13.346;2023-03-16T13:35:58;96680.84;;;17.90;53.87
51123;BME280;37162;41.724;13.346;2023-03-16T13:38:26;96682.72;;;17.89;54.77
51123;BME280;37162;41.724;13.346;2023-03-16T13:41:00;96686.22;;;17.90;55.52
51123;BME280;37162;41.724;13.346;2023-03-16T13:43:28;96684.59;;;17.88;56.63
51123;BME280;37162;41.724;13.346;2023-03-16T13:45:54;96682.38;;;17.85;56.81
51123;BME280;37162;41.724;13.346;2023-03-16T13:48:20;96681.22;;;17.81;57.18
51123;BME280;37162;41.724;13.346;2023-03-16T13:50:54;96683.34;;;17.79;57.42
51123;BME280;37162;41.724;13.346;2023-03-16T13:53:24;96683.81;;;17.76;57.67
51123;BME280;37162;41.724;13.346;2023-03-16T13:55:52;96685.94;;;17.74;57.60
51123;BME280;37162;41.724;13.346;2023-03-16T14:00:45;96682.88;;;17.71;57.91
51123;BME280;37162;41.724;13.346;2023-03-16T14:03:18;96683.59;;;17.66;57.96
51123;BME280;37162;41.724;13.346;2023-03-16T14:05:46;96680.91;;;17.66;58.01
51123;BME280;37162;41.724;13.346;2023-03-16T14:08:21;96681.16;;;17.65;58.02
51123;BME280;37162;41.724;13.346;2023-03-16T14:10:48;96679.50;;;17.63;58.03
51123;BME280;37162;41.724;13.346;2023-03-16T14:13:23;96674.38;;;17.62;58.32
51123;BME280;37162;41.724;13.346;2023-03-16T14:15:54;96682.44;;;17.62;58.56
51123;BME280;37162;41.724;13.346;2023-03-16T14:18:23;96685.38;;;17.60;58.77
51123;BME280;37162;41.724;13.346;2023-03-16T14:20:53;96655.50;;;17.45;59.12
51123;BME280;37162;41.724;13.346;2023-03-16T14:23:25;96682.91;;;17.59;58.99
51123;BME280;37162;41.724;13.346;2023-03-16T14:25:53;96677.53;;;17.59;59.12
51123;BME280;37162;41.724;13.346;2023-03-16T14:28:26;96680.47;;;17.57;59.32